Time;durP1;ratioP1;P1;durP2;ratioP2;P2;SDS_P1;SDS_P2;PMS_P1;PMS_P2;Temp;Humidity;BMP_temperature;BMP_pressure;BME280_temperature;BME280_humidity;BME280_pressure;Samples;Min_cycle;Max_cycle;Signal;HPM_P1;HPM_P2
2022/09/23 00:00:39;;;;;;;6.67;4.07;;;;;;;7.10;100.00;100391.84;4996791;28;20248;-70
2022/09/23 00:03:04;;;;;;;4.80;3.53;;;;;;;7.11;100.00;100398.66;5011467;28;20956;-70
2022/09/23 00:05:29;;;;;;;8.07;3.90;;;;;;;7.07;100.00;100390.25;5008475;28;20280;-73
2022/09/23 00:07:56;;;;;;;6.10;4.00;;;;;;;7.02;100.00;100388.72;5013058;28;20676;-72
2022/09/23 00:10:23;;;;;;;5.27;4.10;;;;;;;6.96;100.00;100389.78;5004015;28;20539;-72
2022/09/23 00:12:48;;;;;;;5.03;4.10;;;;;;;6.95;100.00;100390.69;5012341;28;20525;-74
2022/09/23 00:15:14;;;;;;;4.73;3.87;;;;;;;6.95;100.00;100385.56;5012864;28;20190;-71
2022/09/23 00:17:42;;;;;;;6.43;4.50;;;;;;;6.90;100.00;100392.56;5012758;28;20191;-69
2022/09/23 00:20:09;;;;;;;7.83;3.87;;;;;;;6.85;100.00;100389.34;5003402;28;20278;-71
2022/09/23 00:22:35;;;;;;;4.80;4.07;;;;;;;6.91;100.00;100384.00;5041332;28;20201;-70
2022/09/23 00:25:01;;;;;;;6.07;4.83;;;;;;;6.92;100.00;100396.72;5027372;28;20187;-70
2022/09/23 00:27:27;;;;;;;4.83;3.60;;;;;;;6.79;100.00;100391.19;5026978;28;20211;-70
2022/09/23 00:29:55;;;;;;;7.30;4.47;;;;;;;6.83;100.00;100386.81;5015797;28;20323;-71
2022/09/23 00:32:21;;;;;;;5.23;3.80;;;;;;;6.83;100.00;100389.38;5017123;28;20251;-70
2022/09/23 00:34:46;;;;;;;7.43;4.50;;;;;;;6.80;100.00;100386.94;5012320;28;20220;-73
2022/09/23 00:37:12;;;;;;;4.63;4.10;;;;;;;6.82;100.00;100390.25;5019519;28;20219;-68
2022/09/23 00:39:38;;;;;;;5.33;4.03;;;;;;;6.70;100.00;100383.84;5021636;28;20720;-67
2022/09/23 00:42:03;;;;;;;6.63;4.33;;;;;;;6.64;100.00;100386.59;5017699;28;20235;-72
2022/09/23 00:44:42;;;;;;;5.40;4.37;;;;;;;6.60;100.00;100377.38;5029706;28;20670;-72
2022/09/23 00:47:31;;;;;;;5.33;4.30;;;;;;;6.59;100.00;100379.09;5023361;28;20553;-74
2022/09/23 00:50:15;;;;;;;5.70;4.20;;;;;;;6.47;100.00;100371.81;5017498;28;20194;-72
2022/09/23 00:52:41;;;;;;;6.67;4.23;;;;;;;6.54;100.00;100375.03;4987577;28;20239;-74
2022/09/23 00:55:14;;;;;;;5.27;4.33;;;;;;;6.54;100.00;100370.75;5014138;28;20612;-72
2022/09/23 00:57:42;;;;;;;5.17;4.63;;;;;;;6.52;100.00;100377.63;5023342;28;20194;-76
2022/09/23 01:00:09;;;;;;;6.23;4.80;;;;;;;6.55;100.00;100369.00;5017035;28;20718;-71
2022/09/23 01:02:36;;;;;;;5.53;4.33;;;;;;;6.56;100.00;100374.09;5020636;28;20217;-72
2022/09/23 01:05:06;;;;;;;4.50;4.10;;;;;;;6.58;100.00;100371.47;5021349;28;20235;-73
2022/09/23 01:07:34;;;;;;;6.10;4.80;;;;;;;6.53;100.00;100363.97;5015209;28;20175;-72
2022/09/23 01:10:04;;;;;;;6.80;4.33;;;;;;;6.54;100.00;100362.25;5013731;28;20610;-75
2022/09/23 01:12:55;;;;;;;5.60;4.77;;;;;;;6.42;100.00;100371.16;4984390;28;20238;-73
2022/09/23 01:15:27;;;;;;;7.97;4.70;;;;;;;6.48;100.00;100359.91;5025422;28;20293;-74
2022/09/23 01:18:07;;;;;;;7.27;4.60;;;;;;;6.41;100.00;100364.38;5016191;28;20617;-73
2022/09/23 01:20:54;;;;;;;4.63;4.10;;;;;;;6.41;100.00;100360.09;5006009;28;20351;-72
2022/09/23 01:23:41;;;;;;;5.80;4.43;;;;;;;6.32;100.00;100357.84;5005263;28;20753;-73
2022/09/23 01:26:15;;;;;;;6.40;3.87;;;;;;;6.31;100.00;100358.72;5011014;28;20186;-72
2022/09/23 01:28:53;;;;;;;4.60;4.10;;;;;;;6.20;100.00;100356.53;5011554;28;20612;-73
2022/09/23 01:31:30;;;;;;;3.93;3.60;;;;;;;6.23;100.00;100358.16;5011968;28;20223;-73
2022/09/23 01:34:03;;;;;;;4.83;4.07;;;;;;;6.22;100.00;100352.19;5015789;28;20186;-73
2022/09/23 01:36:51;;;;;;;9.37;3.87;;;;;;;6.18;100.00;100348.06;5017889;28;20186;-72
2022/09/23 01:39:34;;;;;;;6.30;3.80;;;;;;;6.19;100.00;100352.31;5015977;28;20200;-73
2022/09/23 01:42:06;;;;;;;5.73;4.00;;;;;;;6.22;100.00;100349.63;5017421;28;20630;-73
2022/09/23 01:45:05;;;;;;;5.67;3.60;;;;;;;6.17;100.00;100343.03;5019328;28;20190;-73
2022/09/23 01:47:36;;;;;;;6.60;4.27;;;;;;;6.16;100.00;100349.84;5016225;28;20201;-71
2022/09/23 01:53:23;;;;;;;6.60;4.70;;;;;;;6.12;100.00;100346.53;5008659;28;20570;-74
2022/09/23 01:55:55;;;;;;;7.63;4.63;;;;;;;6.11;100.00;100344.88;5022159;28;20196;-72
2022/09/23 01:58:33;;;;;;;4.63;4.17;;;;;;;6.07;100.00;100342.47;5018485;28;20201;-73
2022/09/23 02:01:03;;;;;;;6.80;4.87;;;;;;;6.06;100.00;100341.63;5025117;28;20579;-73
2022/09/23 02:03:46;;;;;;;5.00;4.43;;;;;;;6.00;100.00;100343.56;5034925;28;20725;-73
2022/09/23 02:06:24;;;;;;;5.47;4.60;;;;;;;6.01;100.00;100337.56;5007233;28;20266;-73
2022/09/23 02:08:59;;;;;;;6.00;4.67;;;;;;;5.96;100.00;100335.94;5018088;28;20173;-73
2022/09/23 02:11:27;;;;;;;5.10;4.60;;;;;;;6.02;100.00;100341.78;5031859;28;20244;-72
2022/09/23 02:14:00;;;;;;;5.00;4.47;;;;;;;5.99;100.00;100337.59;5026878;28;20210;-73
2022/09/23 02:16:31;;;;;;;9.67;5.00;;;;;;;5.95;100.00;100339.41;5014962;28;20175;-74
2022/09/23 02:19:05;;;;;;;10.20;5.27;;;;;;;5.97;100.00;100339.34;5020071;28;20645;-73
2022/09/23 02:21:45;;;;;;;5.83;4.53;;;;;;;5.85;100.00;100335.44;5012857;28;20229;-73
2022/09/23 02:24:14;;;;;;;5.93;5.33;;;;;;;5.87;100.00;100328.59;5021109;28;20740;-74
2022/09/23 02:26:51;;;;;;;6.80;4.77;;;;;;;5.88;100.00;100332.81;5012110;28;20186;-73
2022/09/23 02:29:30;;;;;;;7.10;5.07;;;;;;;5.91;100.00;100324.22;5010890;28;20194;-76
2022/09/23 02:32:13;;;;;;;7.47;5.20;;;;;;;5.84;100.00;100322.75;5017955;28;20236;-74
2022/09/23 02:34:52;;;;;;;6.10;5.50;;;;;;;5.92;100.00;100326.72;5007281;28;20190;-74
2022/09/23 02:37:19;;;;;;;7.37;6.37;;;;;;;5.98;100.00;100325.69;5020173;28;20208;-74
2022/09/23 02:40:00;;;;;;;7.43;5.40;;;;;;;5.90;100.00;100320.81;5018660;28;20237;-74
2022/09/23 02:42:59;;;;;;;6.93;5.30;;;;;;;5.88;100.00;100311.53;5014054;28;20697;-73
2022/09/23 02:45:24;;;;;;;7.43;5.93;;;;;;;5.85;100.00;100309.91;5026104;28;20265;-74
2022/09/23 02:47:57;;;;;;;6.93;6.20;;;;;;;5.89;100.00;100318.31;5011061;28;20272;-74
2022/09/23 02:50:23;;;;;;;9.27;5.70;;;;;;;5.94;100.00;100306.22;5013939;28;20241;-73
2022/09/23 02:52:49;;;;;;;6.93;5.40;;;;;;;5.94;100.00;100307.09;5036610;28;20297;-73
2022/09/23 02:55:21;;;;;;;5.77;5.27;;;;;;;5.93;100.00;100304.59;5029208;28;20221;-73
2022/09/23 02:57:47;;;;;;;7.83;5.60;;;;;;;5.94;100.00;100298.56;5016099;28;20179;-75
2022/09/23 03:00:12;;;;;;;7.70;5.53;;;;;;;5.93;100.00;100302.84;4990429;28;20192;-74
2022/09/23 03:02:41;;;;;;;6.70;6.00;;;;;;;5.92;100.00;100308.84;5005878;28;20337;-73
2022/09/23 03:05:14;;;;;;;10.27;5.47;;;;;;;5.96;100.00;100307.84;5004914;28;20701;-73
2022/09/23 03:08:18;;;;;;;7.27;5.60;;;;;;;6.01;100.00;100299.25;5002628;28;20183;-73
2022/09/23 03:11:04;;;;;;;7.77;5.23;;;;;;;5.98;100.00;100295.06;5006470;28;20221;-73
2022/09/23 03:13:41;;;;;;;6.80;5.50;;;;;;;6.01;100.00;100297.53;5012760;28;20262;-74
2022/09/23 03:16:21;;;;;;;11.00;5.77;;;;;;;5.93;100.00;100307.16;5029635;28;20229;-75
2022/09/23 03:19:06;;;;;;;6.07;5.47;;;;;;;5.82;100.00;100299.81;5018498;28;20372;-72
2022/09/23 03:21:43;;;;;;;8.07;5.30;;;;;;;5.88;100.00;100294.50;5008502;28;20226;-73
2022/09/23 03:24:16;;;;;;;11.47;5.23;;;;;;;5.66;100.00;100296.91;5017665;28;20193;-73
2022/09/23 03:26:46;;;;;;;5.63;5.13;;;;;;;5.80;100.00;100296.47;5026137;28;20265;-72
2022/09/23 03:29:14;;;;;;;6.07;5.47;;;;;;;5.77;100.00;100297.41;5028111;28;20650;-74
2022/09/23 03:31:41;;;;;;;8.13;5.90;;;;;;;5.76;100.00;100288.06;4965941;28;20257;-74
2022/09/23 03:34:16;;;;;;;12.87;7.50;;;;;;;5.73;100.00;100290.72;5011421;28;20229;-75
2022/09/23 03:36:59;;;;;;;10.07;7.17;;;;;;;5.67;100.00;100288.38;5026937;28;20189;-72
2022/09/23 03:39:36;;;;;;;7.50;6.13;;;;;;;5.80;100.00;100292.22;5019246;28;20539;-73
2022/09/23 03:42:16;;;;;;;6.93;6.03;;;;;;;5.78;100.00;100293.13;5015410;28;20692;-72
2022/09/23 03:44:45;;;;;;;7.80;6.47;;;;;;;5.75;100.00;100290.69;5011398;28;20269;-73
2022/09/23 03:47:17;;;;;;;9.67;6.23;;;;;;;5.80;100.00;100288.81;5014508;28;20209;-74
2022/09/23 03:49:47;;;;;;;8.03;6.83;;;;;;;5.77;100.00;100283.81;5015045;28;20194;-74
2022/09/23 03:52:13;;;;;;;8.97;7.23;;;;;;;5.70;100.00;100288.25;5008583;28;20567;-74
2022/09/23 03:54:38;;;;;;;9.07;6.47;;;;;;;5.73;100.00;100293.28;5011496;28;20202;-74
2022/09/23 03:57:09;;;;;;;9.67;6.80;;;;;;;5.76;100.00;100288.06;5012557;28;20185;-74
2022/09/23 03:59:34;;;;;;;8.27;6.40;;;;;;;5.57;100.00;100289.50;5025285;28;20175;-73
2022/09/23 04:02:00;;;;;;;8.67;6.87;;;;;;;5.75;100.00;100283.84;5023742;28;20229;-74
2022/09/23 04:04:26;;;;;;;15.50;7.10;;;;;;;5.82;100.00;100285.31;5017418;28;20190;-73
2022/09/23 04:06:53;;;;;;;9.63;6.43;;;;;;;5.88;100.00;100293.66;5016238;28;20218;-73
2022/09/23 04:09:18;;;;;;;9.03;6.63;;;;;;;5.83;100.00;100278.50;5014721;28;20194;-74
2022/09/23 04:11:46;;;;;;;6.83;6.13;;;;;;;5.85;100.00;100281.84;5023633;28;20227;-74
2022/09/23 04:14:12;;;;;;;9.70;6.83;;;;;;;5.89;100.00;100282.56;5013571;28;20241;-73
2022/09/23 04:16:37;;;;;;;7.50;6.70;;;;;;;5.86;100.00;100277.56;5014846;28;20654;-73
2022/09/23 04:19:02;;;;;;;7.63;6.70;;;;;;;5.89;100.00;100278.31;5013813;28;20242;-73
2022/09/23 04:21:29;;;;;;;9.37;6.93;;;;;;;5.86;100.00;100277.56;5019388;28;20226;-72
2022/09/23 04:23:55;;;;;;;7.90;6.10;;;;;;;5.90;100.00;100271.47;5014061;28;20297;-72
2022/09/23 04:26:20;;;;;;;8.53;6.57;;;;;;;5.88;100.00;100263.88;5009373;28;20261;-73
2022/09/23 04:28:48;;;;;;;7.67;5.87;;;;;;;5.89;100.00;100282.56;5018922;28;20199;-73
2022/09/23 04:31:13;;;;;;;10.07;7.63;;;;;;;5.74;100.00;100264.34;5006151;28;20233;-77
2022/09/23 04:33:41;;;;;;;12.00;7.10;;;;;;;5.64;100.00;100268.03;5019143;28;20248;-74
2022/09/23 04:36:07;;;;;;;10.13;6.87;;;;;;;5.70;100.00;100269.56;5015116;28;20187;-73
2022/09/23 04:38:32;;;;;;;10.20;6.60;;;;;;;5.65;100.00;100260.31;5016719;28;20183;-74
2022/09/23 04:40:58;;;;;;;6.93;6.20;;;;;;;5.62;100.00;100257.06;5004876;28;20315;-73
2022/09/23 04:43:23;;;;;;;8.33;7.07;;;;;;;5.69;100.00;100263.63;5031076;28;20206;-73
2022/09/23 04:46:03;;;;;;;10.17;6.87;;;;;;;5.63;100.00;100257.00;5016874;28;20250;-74
2022/09/23 04:48:35;;;;;;;7.43;6.70;;;;;;;5.74;100.00;100256.66;5024635;28;20222;-73
2022/09/23 04:51:10;;;;;;;10.63;7.50;;;;;;;5.77;100.00;100258.28;5014735;28;20225;-73
2022/09/23 04:53:39;;;;;;;7.57;6.67;;;;;;;5.86;100.00;100264.81;5020309;28;20179;-74
2022/09/23 04:56:16;;;;;;;7.97;7.17;;;;;;;5.87;100.00;100253.72;5012634;28;20615;-74
2022/09/23 04:58:48;;;;;;;7.37;6.33;;;;;;;5.95;100.00;100261.94;5018492;28;20190;-73
2022/09/23 05:01:23;;;;;;;7.50;6.40;;;;;;;5.96;100.00;100261.88;5005195;28;20247;-72
2022/09/23 05:03:48;;;;;;;10.10;8.00;;;;;;;5.98;100.00;100267.81;5021383;28;21728;-72
2022/09/23 05:06:19;;;;;;;10.97;7.57;;;;;;;6.05;100.00;100270.19;5016833;28;20174;-72
2022/09/23 05:08:53;;;;;;;8.90;7.37;;;;;;;6.00;100.00;100269.50;5012426;28;20183;-73
2022/09/23 05:11:22;;;;;;;8.50;7.20;;;;;;;6.09;100.00;100272.59;5000431;28;20229;-74
2022/09/23 05:13:48;;;;;;;8.70;6.73;;;;;;;6.09;100.00;100275.13;5021028;28;20270;-71
2022/09/23 05:16:14;;;;;;;11.60;6.47;;;;;;;5.97;100.00;100285.72;5023505;28;20187;-72
2022/09/23 05:18:43;;;;;;;8.77;7.00;;;;;;;6.08;100.00;100283.69;5017777;28;20273;-73
2022/09/23 05:21:22;;;;;;;7.77;6.27;;;;;;;6.01;100.00;100278.84;5010978;28;20317;-73
2022/09/23 05:23:57;;;;;;;9.97;6.80;;;;;;;6.12;100.00;100279.31;5014590;28;20222;-73
2022/09/23 05:26:24;;;;;;;7.23;6.43;;;;;;;6.14;100.00;100283.47;5024091;28;20193;-73
2022/09/23 05:28:49;;;;;;;7.20;6.20;;;;;;;6.28;100.00;100282.19;5014332;28;20630;-72
2022/09/23 05:31:17;;;;;;;9.07;6.53;;;;;;;6.30;100.00;100277.84;5005153;28;20249;-74
2022/09/23 05:33:53;;;;;;;9.17;7.03;;;;;;;6.29;100.00;100277.03;5022335;28;20241;-72
2022/09/23 05:36:20;;;;;;;6.70;6.00;;;;;;;6.26;100.00;100273.72;5021500;28;20235;-73
2022/09/23 05:38:48;;;;;;;11.80;7.50;;;;;;;6.29;100.00;100276.19;5014629;28;20218;-73
2022/09/23 05:41:15;;;;;;;8.67;6.37;;;;;;;6.46;100.00;100278.16;5020608;28;20232;-75
2022/09/23 05:43:40;;;;;;;7.20;5.70;;;;;;;6.58;100.00;100287.13;5013678;28;20269;-75
2022/09/23 05:46:07;;;;;;;9.67;6.10;;;;;;;6.58;100.00;100285.41;5010480;28;20222;-75
2022/09/23 05:48:34;;;;;;;6.57;5.67;;;;;;;6.79;100.00;100285.53;5011119;28;20279;-74
2022/09/23 05:51:00;;;;;;;6.50;5.70;;;;;;;6.82;100.00;100285.41;5003448;28;20625;-74
2022/09/23 05:53:26;;;;;;;10.30;6.10;;;;;;;7.01;100.00;100282.19;5012065;28;20552;-74
2022/09/23 05:55:53;;;;;;;6.83;5.80;;;;;;;6.97;100.00;100285.75;5008714;28;20198;-75
2022/09/23 05:58:18;;;;;;;7.90;5.43;;;;;;;7.03;100.00;100280.41;5022397;28;20189;-75
2022/09/23 06:00:44;;;;;;;6.53;5.23;;;;;;;7.21;100.00;100276.34;5008590;28;20607;-75
2022/09/23 06:03:13;;;;;;;6.27;5.33;;;;;;;7.31;100.00;100279.41;5006509;28;20227;-74
2022/09/23 06:05:42;;;;;;;6.83;6.10;;;;;;;7.36;100.00;100277.50;5010098;28;20193;-74
2022/09/23 06:08:10;;;;;;;6.10;5.50;;;;;;;7.61;100.00;100272.25;5012258;28;20198;-75
2022/09/23 06:10:41;;;;;;;8.00;5.53;;;;;;;7.52;100.00;100272.63;5007007;28;20302;-75
2022/09/23 06:13:07;;;;;;;8.13;5.47;;;;;;;7.84;100.00;100271.34;5010733;28;20235;-74
2022/09/23 06:15:33;;;;;;;6.87;5.47;;;;;;;7.99;100.00;100263.91;5009710;28;20233;-74
2022/09/23 06:17:59;;;;;;;6.83;4.90;;;;;;;8.24;100.00;100263.72;5010556;28;20186;-75
2022/09/23 06:20:25;;;;;;;7.73;5.17;;;;;;;8.44;100.00;100264.63;5005178;28;20229;-75
2022/09/23 06:22:50;;;;;;;6.97;4.60;;;;;;;8.58;100.00;100264.03;5021056;28;20211;-75
2022/09/23 06:25:18;;;;;;;6.30;4.77;;;;;;;8.68;100.00;100260.16;5010105;28;20243;-75
2022/09/23 06:27:43;;;;;;;6.97;5.97;;;;;;;8.76;100.00;100260.66;5019868;28;20193;-73
2022/09/23 06:30:12;;;;;;;7.03;4.83;;;;;;;8.55;100.00;100260.69;5013877;28;20193;-75
2022/09/23 06:32:41;;;;;;;5.50;4.90;;;;;;;8.87;100.00;100267.91;5033553;28;20576;-75
2022/09/23 06:35:09;;;;;;;10.40;5.07;;;;;;;9.19;100.00;100269.00;5017970;28;20190;-75
2022/09/23 06:37:37;;;;;;;8.40;5.23;;;;;;;9.31;100.00;100267.56;5012670;28;20170;-75
2022/09/23 06:40:03;;;;;;;4.77;4.30;;;;;;;9.45;100.00;100266.09;5013222;28;20186;-74
2022/09/23 06:42:31;;;;;;;8.87;4.67;;;;;;;9.59;100.00;100260.31;5024663;28;20664;-75
2022/09/23 06:44:56;;;;;;;7.60;4.00;;;;;;;9.72;100.00;100261.38;5017888;28;20334;-75
2022/09/23 06:47:22;;;;;;;5.27;4.23;;;;;;;9.81;100.00;100265.25;5019934;28;20362;-75
2022/09/23 06:49:47;;;;;;;6.20;4.37;;;;;;;9.93;100.00;100259.50;5010674;28;20248;-75
2022/09/23 06:52:13;;;;;;;9.80;4.63;;;;;;;10.25;100.00;100258.81;5016490;28;20229;-75
2022/09/23 06:54:38;;;;;;;4.73;3.57;;;;;;;10.57;100.00;100257.19;5029665;28;20189;-75
2022/09/23 06:57:09;;;;;;;5.37;4.20;;;;;;;10.61;100.00;100258.69;5025009;28;20285;-75
2022/09/23 06:59:36;;;;;;;6.17;4.13;;;;;;;11.00;100.00;100255.81;5018383;28;20182;-75
2022/09/23 07:02:02;;;;;;;7.50;5.17;;;;;;;11.59;100.00;100253.47;4987772;28;20248;-75
2022/09/23 07:04:27;;;;;;;5.50;4.10;;;;;;;12.16;96.72;100245.06;5027816;28;20260;-75
2022/09/23 07:06:56;;;;;;;7.77;4.50;;;;;;;12.30;92.54;100257.13;5024671;28;20281;-75
2022/09/23 07:09:24;;;;;;;5.27;4.00;;;;;;;12.72;90.36;100257.22;5018654;28;20182;-75
2022/09/23 07:11:50;;;;;;;10.43;3.90;;;;;;;13.25;86.99;100252.25;5030193;28;20316;-75
2022/09/23 07:14:15;;;;;;;6.53;3.93;;;;;;;13.64;83.78;100254.97;5029474;28;20197;-76
2022/09/23 07:16:47;;;;;;;6.27;4.10;;;;;;;14.13;79.13;100250.94;5001831;28;20301;-75
2022/09/23 07:19:12;;;;;;;8.07;4.20;;;;;;;14.53;76.11;100251.59;5010919;28;20198;-75
2022/09/23 07:21:40;;;;;;;6.83;4.23;;;;;;;14.92;72.34;100253.31;5022808;28;20228;-76
2022/09/23 07:24:06;;;;;;;5.93;4.20;;;;;;;15.59;67.07;100252.84;5012772;28;20218;-76
2022/09/23 07:26:32;;;;;;;5.40;4.57;;;;;;;15.74;64.50;100256.09;5027755;28;20185;-75
2022/09/23 07:29:03;;;;;;;8.23;5.20;;;;;;;15.98;62.99;100260.41;5010512;28;20625;-76
2022/09/23 07:31:30;;;;;;;8.50;4.53;;;;;;;16.56;61.61;100257.75;4977276;28;20231;-76
2022/09/23 07:34:02;;;;;;;6.20;4.27;;;;;;;17.16;57.11;100261.84;5030751;28;20196;-76
2022/09/23 07:36:30;;;;;;;5.20;4.33;;;;;;;17.62;54.66;100265.09;5012299;28;20552;-76
2022/09/23 07:39:01;;;;;;;6.60;4.17;;;;;;;17.88;54.33;100262.94;5023104;28;20312;-76
2022/09/23 07:41:27;;;;;;;5.40;3.77;;;;;;;18.53;51.34;100267.94;5012120;28;20245;-73
2022/09/23 07:43:57;;;;;;;8.47;4.67;;;;;;;18.86;49.07;100269.44;5020614;28;20778;-76
2022/09/23 07:46:28;;;;;;;7.50;4.10;;;;;;;19.25;48.49;100271.34;5008629;28;20226;-75
2022/09/23 07:48:56;;;;;;;4.77;4.30;;;;;;;18.92;46.55;100277.72;5009358;28;20190;-75
2022/09/23 07:51:25;;;;;;;5.80;3.87;;;;;;;18.29;49.85;100268.28;4996983;28;20225;-75
2022/09/23 07:53:52;;;;;;;4.63;3.40;;;;;;;17.97;49.31;100277.81;5008535;28;20179;-75
2022/09/23 07:56:20;;;;;;;6.47;3.17;;;;;;;17.41;50.00;100279.72;5010168;28;20290;-74
2022/09/23 07:58:58;;;;;;;6.57;3.73;;;;;;;16.62;52.36;100280.66;5007519;28;20199;-75
2022/09/23 08:01:24;;;;;;;4.37;3.30;;;;;;;16.51;55.67;100278.06;4996102;28;20241;-75
2022/09/23 08:03:49;;;;;;;3.73;3.27;;;;;;;17.15;51.97;100278.38;5011858;28;20215;-76
2022/09/23 08:06:14;;;;;;;6.77;3.53;;;;;;;17.30;51.71;100284.94;5010499;28;20187;-75
2022/09/23 08:08:42;;;;;;;6.50;3.80;;;;;;;17.02;52.42;100283.72;5010256;28;20186;-75
2022/09/23 08:11:10;;;;;;;4.00;3.40;;;;;;;17.15;51.11;100288.75;5005596;28;20258;-74
2022/09/23 08:13:36;;;;;;;5.03;3.53;;;;;;;17.39;52.37;100289.41;5018133;28;20229;-72
2022/09/23 08:16:02;;;;;;;5.77;3.60;;;;;;;15.74;56.74;100287.19;5010484;28;20600;-77
2022/09/23 08:18:27;;;;;;;6.33;3.50;;;;;;;15.43;61.13;100294.63;5015054;28;20619;-60
2022/09/23 08:20:54;;;;;;;6.03;4.00;;;;;;;14.32;66.24;100286.72;5006614;28;20804;-63
2022/09/23 08:23:20;;;;;;;7.20;4.13;;;;;;;14.44;67.82;100275.53;5018724;28;20210;-62
2022/09/23 08:25:50;;;;;;;6.87;3.97;;;;;;;14.91;64.63;100277.56;5010741;28;20527;-62
2022/09/23 08:28:17;;;;;;;6.57;4.50;;;;;;;14.92;63.99;100282.66;5011072;28;20183;-61
2022/09/23 08:30:47;;;;;;;4.83;3.73;;;;;;;14.47;68.51;100280.50;5004429;28;21065;-61
2022/09/23 08:33:15;;;;;;;6.13;4.47;;;;;;;14.01;73.46;100273.25;5020183;28;20194;-62
2022/09/23 08:35:40;;;;;;;8.33;4.67;;;;;;;14.00;75.76;100275.03;5018179;28;20267;-62
2022/09/23 08:38:09;;;;;;;6.57;4.20;;;;;;;14.06;76.84;100268.59;5014898;28;20266;-61
2022/09/23 08:40:43;;;;;;;4.90;4.07;;;;;;;14.22;75.24;100272.75;5008376;28;20575;-62
2022/09/23 08:43:30;;;;;;;10.20;4.23;;;;;;;14.96;67.02;100270.31;5027729;28;20246;-70
2022/09/23 08:46:00;;;;;;;5.13;4.07;;;;;;;15.16;65.71;100272.31;5023641;28;20650;-70
2022/09/23 08:48:40;;;;;;;4.70;3.87;;;;;;;15.34;64.23;100277.13;5015784;28;20183;-69
2022/09/23 08:51:16;;;;;;;7.30;4.23;;;;;;;15.47;61.45;100267.53;5013151;28;20244;-71
2022/09/23 08:53:42;;;;;;;6.87;4.07;;;;;;;15.79;59.35;100266.94;5009814;28;20190;-76
2022/09/23 08:56:19;;;;;;;11.83;3.93;;;;;;;16.26;57.05;100264.34;5014781;28;20186;-70
2022/09/23 08:59:08;;;;;;;4.67;4.10;;;;;;;17.64;50.65;100266.63;5011142;28;20198;-70
2022/09/23 09:01:40;;;;;;;5.77;3.97;;;;;;;19.59;44.93;100265.69;5009468;28;20753;-70
2022/09/23 09:04:26;;;;;;;4.77;3.47;;;;;;;21.07;39.70;100258.19;5002926;28;20550;-71
2022/09/23 09:07:08;;;;;;;8.97;3.67;;;;;;;21.73;37.92;100266.63;5010501;28;20630;-70
2022/09/23 09:09:43;;;;;;;6.57;3.37;;;;;;;22.85;35.61;100264.94;5013073;28;20631;-70
2022/09/23 09:12:15;;;;;;;3.70;3.20;;;;;;;23.58;34.68;100267.84;5017767;28;20225;-74
2022/09/23 09:14:53;;;;;;;8.47;3.67;;;;;;;21.19;38.55;100269.28;5010892;28;20183;-71
2022/09/23 09:17:37;;;;;;;11.67;3.50;;;;;;;21.50;36.49;100269.72;5013177;28;20213;-70
2022/09/23 09:20:03;;;;;;;4.70;3.37;;;;;;;22.67;35.33;100261.59;5022400;28;20210;-69
2022/09/23 09:22:47;;;;;;;5.70;3.47;;;;;;;21.58;38.63;100259.34;5009149;28;20215;-70
2022/09/23 09:25:37;;;;;;;6.43;3.67;;;;;;;23.21;33.66;100261.28;5010036;28;20190;-71
2022/09/23 09:28:13;;;;;;;4.55;3.55;;;;;;;24.09;33.65;100253.66;5010857;28;20224;-70
2022/09/23 09:30:39;;;;;;;4.13;3.60;;;;;;;23.71;34.22;100250.78;5004075;28;20291;-71
2022/09/23 09:33:16;;;;;;;4.63;3.63;;;;;;;23.23;33.69;100246.16;5010635;28;20186;-71
2022/09/23 09:35:57;;;;;;;6.13;3.47;;;;;;;21.94;35.96;100242.72;5012639;28;20289;-71
2022/09/23 09:38:22;;;;;;;3.83;3.00;;;;;;;24.25;33.33;100245.75;5013580;28;20178;-71
2022/09/23 09:40:49;;;;;;;9.45;3.15;;;;;;;24.41;32.68;100234.34;5005325;28;20240;-73
2022/09/23 09:43:22;;;;;;;6.38;3.42;;;;;;;24.68;32.50;100224.38;5010948;28;20740;-72
2022/09/23 09:46:32;;;;;;;4.47;3.03;;;;;;;25.57;30.71;100229.16;5011690;28;20666;-74
2022/09/23 09:49:07;;;;;;;5.55;3.65;;;;;;;25.09;31.00;100224.13;5011006;28;20282;-72
2022/09/23 09:51:34;;;;;;;5.40;3.60;;;;;;;22.65;34.56;100226.84;5009163;28;20230;-76
2022/09/23 09:54:38;;;;;;;3.70;3.33;;;;;;;21.89;36.54;100227.50;5011203;28;20653;-75
2022/09/23 09:57:10;;;;;;;5.32;3.42;;;;;;;23.85;34.79;100227.28;4971122;28;20192;-74
2022/09/23 09:59:41;;;;;;;6.05;3.45;;;;;;;25.89;31.35;100218.50;4968850;28;20204;-70
2022/09/23 10:02:29;;;;;;;5.30;3.42;;;;;;;27.28;28.93;100228.19;4940673;28;20776;-68
2022/09/23 10:05:09;;;;;;;3.95;3.53;;;;;;;26.98;28.26;100223.06;4967740;28;20580;-69
2022/09/23 10:07:35;;;;;;;3.42;3.13;;;;;;;26.45;28.94;100218.00;4968114;28;20195;-72
2022/09/23 10:10:24;;;;;;;7.07;3.58;;;;;;;24.46;32.31;100218.88;4969049;28;20200;-73
2022/09/23 10:12:51;;;;;;;5.20;3.90;;;;;;;25.28;30.73;100212.28;4949361;28;20271;-71
2022/09/23 10:15:29;;;;;;;7.93;3.72;;;;;;;24.60;31.89;100217.31;4958612;28;20199;-68
2022/09/23 10:17:55;;;;;;;4.22;3.17;;;;;;;24.14;32.37;100223.28;4964213;28;20208;-69
2022/09/23 10:20:20;;;;;;;4.38;3.50;;;;;;;21.68;37.20;100200.84;4961014;28;20207;-71
2022/09/23 10:22:46;;;;;;;3.75;2.83;;;;;;;20.64;38.47;100205.63;4968850;28;20222;-70
2022/09/23 10:25:29;;;;;;;4.65;3.13;;;;;;;19.58;43.53;100206.63;4970890;28;20327;-74
2022/09/23 10:27:57;;;;;;;4.28;3.33;;;;;;;18.60;45.44;100213.56;4970632;28;20333;-69
2022/09/23 10:30:24;;;;;;;3.80;3.47;;;;;;;17.58;48.46;100217.69;4973378;28;20223;-68
2022/09/23 10:32:53;;;;;;;6.83;3.67;;;;;;;17.65;49.72;100203.25;5023390;28;20218;-72
2022/09/23 10:35:24;;;;;;;4.93;3.40;;;;;;;17.54;51.17;100211.91;5012133;28;20189;-69
2022/09/23 10:37:56;;;;;;;3.87;3.57;;;;;;;18.01;51.13;100189.91;5012615;28;20193;-68
2022/09/23 10:46:49;;;;;;;4.23;3.47;;;;;;;17.09;51.79;100196.50;4998972;28;20234;-69
2022/09/23 10:49:39;;;;;;;6.33;3.70;;;;;;;16.85;53.96;100189.69;4967275;28;20202;-69
2022/09/23 10:52:21;;;;;;;5.20;3.20;;;;;;;16.96;55.71;100188.06;4967592;28;20376;-70
2022/09/23 10:54:56;;;;;;;4.13;3.63;;;;;;;17.46;51.97;100177.91;4974872;28;20209;-69
2022/09/23 10:57:42;;;;;;;5.23;3.60;;;;;;;17.91;51.86;100172.44;4985055;28;20198;-72
2022/09/23 11:00:35;;;;;;;5.03;3.40;;;;;;;18.01;50.57;100177.72;4967781;28;20257;-69
2022/09/23 11:03:24;;;;;;;4.70;3.53;;;;;;;16.89;57.60;100174.69;4989806;28;20289;-63
2022/09/23 11:06:14;;;;;;;7.60;3.60;;;;;;;16.82;54.98;100178.72;4987640;28;20553;-61
2022/09/23 11:08:49;;;;;;;4.57;3.37;;;;;;;16.88;52.46;100178.25;4987528;28;20195;-60
2022/09/23 11:11:40;;;;;;;4.80;3.83;;;;;;;16.92;54.34;100175.31;4979773;28;20219;-61
2022/09/23 11:14:24;;;;;;;10.70;3.57;;;;;;;16.96;55.95;100170.69;4975742;28;20190;-61
2022/09/23 11:17:13;;;;;;;3.50;2.97;;;;;;;17.31;56.48;100168.78;5011140;28;20560;-62
2022/09/23 11:19:54;;;;;;;4.40;3.60;;;;;;;17.69;52.70;100162.19;5013408;28;20224;-61
2022/09/23 11:22:45;;;;;;;3.33;3.03;;;;;;;17.43;52.95;100166.00;5011924;28;20229;-61
2022/09/23 11:25:52;;;;;;;3.77;3.23;;;;;;;17.63;53.46;100160.91;5017301;28;20248;-62
2022/09/23 11:28:36;;;;;;;4.17;3.20;;;;;;;17.55;53.52;100150.31;5007090;28;20183;-62
2022/09/23 11:31:13;;;;;;;5.63;3.10;;;;;;;17.83;56.70;100158.44;4981616;28;20239;-61
2022/09/23 11:33:44;;;;;;;3.97;2.50;;;;;;;18.04;51.72;100153.22;4988398;28;20186;-60
2022/09/23 11:36:31;;;;;;;4.03;3.40;;;;;;;17.83;50.95;100151.44;5013064;28;20182;-60
2022/09/23 11:39:04;;;;;;;5.07;4.00;;;;;;;17.42;53.80;100148.72;5012669;28;20260;-61
2022/09/23 11:41:36;;;;;;;4.00;3.20;;;;;;;17.12;53.56;100153.84;5026099;28;20223;-61
2022/09/23 11:44:32;;;;;;;3.23;2.93;;;;;;;17.53;52.60;100141.84;5025844;28;20242;-61
2022/09/23 11:47:06;;;;;;;3.40;2.90;;;;;;;17.93;51.33;100141.06;5030991;28;20221;-62
2022/09/23 11:50:13;;;;;;;4.00;2.97;;;;;;;18.04;52.15;100130.59;5013782;28;20284;-63
2022/09/23 11:52:47;;;;;;;5.30;2.90;;;;;;;18.45;51.08;100133.19;4965448;28;20227;-61
2022/09/23 11:55:31;;;;;;;5.50;3.30;;;;;;;18.52;50.95;100131.69;4993945;28;20188;-62
2022/09/23 11:58:04;;;;;;;4.27;2.93;;;;;;;18.57;49.51;100131.31;4992748;28;20203;-62